createdAt,value
2023-05-14T00:01:40.569Z,61026.03
2023-05-14T00:04:09.235Z,61020.72
2023-05-14T00:06:37.572Z,61015.22
2023-05-14T00:09:07.317Z,61012.50
2023-05-14T00:11:35.599Z,61011.97
2023-05-14T00:14:03.925Z,61010.34
2023-05-14T00:16:32.312Z,61009.78
2023-05-14T00:19:00.790Z,61012.91
2023-05-14T00:21:29.229Z,61006.91
2023-05-14T00:23:57.537Z,61002.16
2023-05-14T00:26:27.301Z,60994.53
2023-05-14T00:28:55.851Z,60995.59
2023-05-14T00:31:24.285Z,60991.25
2023-05-14T00:33:52.693Z,60989.06
2023-05-14T00:36:21.007Z,60986.34
2023-05-14T00:38:50.292Z,60982.50
2023-05-14T00:41:18.718Z,60984.56
2023-05-14T00:43:48.403Z,60981.41
2023-05-14T00:46:17.430Z,60991.91
2023-05-14T00:48:46.258Z,60988.38
2023-05-14T00:51:14.812Z,60986.19
2023-05-14T00:53:43.288Z,60985.66
2023-05-14T00:56:11.650Z,60985.09
2023-05-14T00:58:40.817Z,60980.75
2023-05-14T01:01:11.086Z,60975.44
2023-05-14T01:03:39.855Z,60973.78
2023-05-14T01:06:15.618Z,60979.09
2023-05-14T01:08:54.526Z,60971.63
2023-05-14T01:11:28.686Z,60970.38
2023-05-14T01:14:08.751Z,60967.13
2023-05-14T01:16:41.351Z,60963.44
2023-05-14T01:19:22.929Z,60959.59
2023-05-14T01:21:52.650Z,60964.78
2023-05-14T01:24:21.096Z,60955.41
2023-05-14T01:26:49.467Z,60957.44
2023-05-14T01:29:22.511Z,60957.44
2023-05-14T01:31:52.310Z,60955.41
2023-05-14T01:34:23.409Z,60956.34
2023-05-14T01:36:54.427Z,60954.16
2023-05-14T01:39:24.026Z,60947.91
2023-05-14T01:41:53.295Z,60949.25
2023-05-14T01:44:22.756Z,60947.47
2023-05-14T01:46:51.035Z,60942.16
2023-05-14T01:49:19.664Z,60943.81
2023-05-14T01:51:48.049Z,60944.34
2023-05-14T01:54:17.731Z,60944.88
2023-05-14T01:56:46.122Z,60945.84
2023-05-14T01:59:14.458Z,60952.25
2023-05-14T02:01:42.814Z,60951.31
2023-05-14T02:04:11.589Z,60951.97
2023-05-14T02:06:39.953Z,60953.63
2023-05-14T02:09:08.247Z,60958.94
2023-05-14T02:11:37.932Z,60964.78
2023-05-14T02:14:06.243Z,60973.22
2023-05-14T02:16:34.637Z,60971.88
2023-05-14T02:19:03.017Z,60968.34
2023-05-14T02:21:31.985Z,60971.63
2023-05-14T02:24:00.290Z,60974.88
2023-05-14T02:26:28.648Z,60978.16
2023-05-14T02:28:58.896Z,60976.09
2023-05-14T02:31:27.290Z,60982.38
2023-05-14T02:33:55.671Z,60981.41
2023-05-14T02:36:24.021Z,60985.09
2023-05-14T02:38:52.290Z,60982.50
2023-05-14T02:41:21.483Z,60983.63
2023-05-14T02:43:49.774Z,60989.88
2023-05-14T02:46:19.581Z,60988.22
2023-05-14T02:48:48.017Z,60988.78
2023-05-14T02:51:16.778Z,60983.63
2023-05-14T02:53:45.159Z,60985.66
2023-05-14T02:56:13.490Z,60993.97
2023-05-14T02:58:41.831Z,60992.47
2023-05-14T03:01:10.305Z,60990.97
2023-05-14T03:03:40.753Z,60986.34
2023-05-14T03:06:09.385Z,60992.19
2023-05-14T03:08:37.746Z,60998.06
2023-05-14T03:11:06.874Z,60997.78
2023-05-14T03:13:35.232Z,61018.09
2023-05-14T03:16:03.536Z,61022.50
2023-05-14T03:18:33.362Z,61033.41
2023-05-14T03:21:03.908Z,61042.53
2023-05-14T03:23:34.985Z,61057.53
2023-05-14T03:26:03.853Z,61056.72
2023-05-14T03:28:32.206Z,61058.22
2023-05-14T03:31:00.977Z,61048.00
2023-05-14T03:33:29.456Z,61050.16
2023-05-14T03:35:57.907Z,61046.50
2023-05-14T03:38:27.625Z,61050.59
2023-05-14T03:40:55.983Z,61046.91
2023-05-14T03:43:24.367Z,61044.03
2023-05-14T03:45:53.087Z,61041.97
2023-05-14T03:48:21.533Z,61046.22
2023-05-14T03:50:50.185Z,61043.47
2023-05-14T03:53:18.512Z,61044.03
2023-05-14T03:55:48.188Z,61035.44
2023-05-14T03:58:17.391Z,61034.34
2023-05-14T04:00:45.996Z,61032.19
2023-05-14T04:03:14.805Z,61033.13
2023-05-14T04:05:43.185Z,61028.75
2023-05-14T04:08:11.556Z,61021.78
2023-05-14T04:10:40.156Z,61017.44
2023-05-14T04:13:09.950Z,61020.19
2023-05-14T04:15:39.402Z,61020.72
2023-05-14T04:18:07.987Z,61008.28
2023-05-14T04:20:36.849Z,61003.66
2023-05-14T04:23:05.246Z,61004.03
2023-05-14T04:25:33.593Z,60996.56
2023-05-14T04:28:01.903Z,60994.38
2023-05-14T04:30:31.697Z,60986.88
2023-05-14T04:33:00.060Z,60992.47
2023-05-14T04:35:28.630Z,60986.34
2023-05-14T04:37:56.956Z,60991.50
2023-05-14T04:40:25.579Z,60981.56
2023-05-14T04:42:54.157Z,60989.88
2023-05-14T04:45:22.466Z,60983.63
2023-05-14T04:47:52.331Z,60975.72
2023-05-14T04:50:20.857Z,60985.66
2023-05-14T04:52:49.334Z,60998.59
2023-05-14T04:55:17.840Z,61004.31
2023-05-14T04:57:46.152Z,61009.38
2023-05-14T05:00:15.810Z,61019.06
2023-05-14T05:02:44.685Z,61028.34
2023-05-14T05:05:14.602Z,61026.84
2023-05-14T05:07:42.926Z,61030.53
2023-05-14T05:10:11.491Z,61029.44
2023-05-14T05:12:39.791Z,61030.41
2023-05-14T05:15:09.858Z,61023.44
2023-05-14T05:17:38.346Z,61023.31
2023-05-14T05:20:09.704Z,61023.72
2023-05-14T05:22:39.422Z,61021.66
2023-05-14T05:25:09.050Z,61029.16
2023-05-14T05:27:37.416Z,61032.56
2023-05-14T05:30:07.351Z,61036.00
2023-05-14T05:32:36.146Z,61045.53
2023-05-14T05:35:04.939Z,61043.63
2023-05-14T05:37:33.343Z,61048.41
2023-05-14T05:40:04.435Z,61049.63
2023-05-14T05:42:32.899Z,61054.94
2023-05-14T05:45:01.204Z,61049.78
2023-05-14T05:47:30.107Z,61051.81
2023-05-14T05:49:58.448Z,61055.34
2023-05-14T05:52:26.834Z,61056.44
2023-05-14T05:54:55.132Z,61056.44
2023-05-14T05:57:27.082Z,61055.09
2023-05-14T05:59:55.462Z,61059.31
2023-05-14T06:02:25.275Z,61060.69
2023-05-14T06:04:53.801Z,61074.59
2023-05-14T06:07:22.140Z,61081.69
2023-05-14T06:09:50.502Z,61084.69
2023-05-14T06:12:18.831Z,61103.38
2023-05-14T06:14:48.630Z,61110.59
2023-05-14T06:17:16.948Z,61119.34
2023-05-14T06:19:45.255Z,61120.59
2023-05-14T06:22:14.775Z,61125.50
2023-05-14T06:24:43.093Z,61130.00
2023-05-14T06:27:11.675Z,61138.59
2023-05-14T06:29:40.006Z,61141.19
2023-05-14T06:32:10.417Z,61142.97
2023-05-14T06:34:38.807Z,61147.34
2023-05-14T06:37:07.097Z,61156.63
2023-05-14T06:39:35.501Z,61169.06
2023-05-14T06:42:03.923Z,61169.19
2023-05-14T06:44:32.652Z,61177.13
2023-05-14T06:47:00.974Z,61178.47
2023-05-14T06:49:30.645Z,61189.41
2023-05-14T06:51:59.022Z,61199.81
2023-05-14T06:54:27.449Z,61213.44
2023-05-14T06:56:55.813Z,61222.75
2023-05-14T06:59:24.135Z,61233.00
2023-05-14T07:01:52.559Z,61227.81
2023-05-14T07:04:21.273Z,61233.13
2023-05-14T07:06:50.998Z,61232.72
2023-05-14T07:09:19.874Z,61233.81
2023-05-14T07:11:48.176Z,61239.97
2023-05-14T07:14:16.484Z,61241.19
2023-05-14T07:16:47.001Z,61243.50
2023-05-14T07:19:15.541Z,61250.63
2023-05-14T07:21:43.970Z,61262.09
2023-05-14T07:24:13.715Z,61264.81
2023-05-14T07:26:42.056Z,61264.81
2023-05-14T07:29:10.364Z,61266.47
2023-05-14T07:31:38.791Z,61270.97
2023-05-14T07:34:08.498Z,61279.75
2023-05-14T07:36:36.838Z,61296.28
2023-05-14T07:39:05.181Z,61305.31
2023-05-14T07:41:35.015Z,61322.81
2023-05-14T07:44:03.362Z,61332.25
2023-05-14T07:46:31.735Z,61337.03
2023-05-14T07:49:00.057Z,61341.94
2023-05-14T07:51:28.534Z,61346.47
2023-05-14T07:53:56.926Z,61359.06
2023-05-14T07:56:25.657Z,61376.44
2023-05-14T07:58:55.948Z,61390.38
2023-05-14T08:01:24.385Z,61391.19
2023-05-14T08:03:53.255Z,61403.25
2023-05-14T08:06:22.780Z,61421.88
2023-05-14T08:08:51.105Z,61437.19
2023-05-14T08:11:19.492Z,61448.72
2023-05-14T08:13:47.841Z,61464.59
2023-05-14T08:16:17.570Z,61473.59
2023-05-14T08:18:46.354Z,61493.06
2023-05-14T08:21:14.715Z,61506.22
2023-05-14T08:23:43.028Z,61507.88
2023-05-14T08:26:11.429Z,61523.22
2023-05-14T08:28:39.714Z,61534.28
2023-05-14T08:31:08.113Z,61546.09
2023-05-14T08:33:37.892Z,61551.03
2023-05-14T08:36:07.264Z,61551.16
2023-05-14T08:38:35.582Z,61549.78
2023-05-14T08:41:07.186Z,61548.13
2023-05-14T08:43:45.241Z,61555.53
2023-05-14T08:46:15.896Z,61556.63
2023-05-14T08:48:49.315Z,61556.63
2023-05-14T08:51:17.787Z,61566.50
2023-05-14T08:53:46.144Z,61578.56
2023-05-14T08:56:16.449Z,61579.66
2023-05-14T08:58:44.847Z,61586.50
2023-05-14T09:01:13.241Z,61587.31
2023-05-14T09:03:42.173Z,61603.78
2023-05-14T09:06:13.872Z,61619.81
2023-05-14T09:08:42.263Z,61634.50
2023-05-14T09:11:10.630Z,61639.44
2023-05-14T09:13:39.477Z,61631.34
2023-05-14T09:16:08.600Z,61636.28
2023-05-14T09:18:37.881Z,61638.06
2023-05-14T09:21:06.396Z,61650.53
2023-05-14T09:23:36.215Z,61666.31
2023-05-14T09:26:06.574Z,61667.97
2023-05-14T09:28:34.994Z,61669.63
2023-05-14T09:31:03.711Z,61670.28
2023-05-14T09:33:32.848Z,61680.59
2023-05-14T09:36:01.667Z,61687.44
2023-05-14T09:38:30.882Z,61684.97
2023-05-14T09:41:01.630Z,61686.63
2023-05-14T09:43:30.045Z,61686.75
2023-05-14T09:45:58.325Z,61699.78
2023-05-14T09:48:27.004Z,61722.19
2023-05-14T09:50:55.394Z,61731.19
2023-05-14T09:53:23.764Z,61745.34
2023-05-14T09:55:52.105Z,61752.19
2023-05-14T09:58:21.895Z,61761.41
2023-05-14T10:00:51.926Z,61751.50
2023-05-14T10:03:23.084Z,61754.13
2023-05-14T10:05:52.120Z,61759.09
2023-05-14T10:08:25.562Z,61756.59
2023-05-14T10:10:55.608Z,61756.34
2023-05-14T10:13:31.384Z,61732.84
2023-05-14T10:16:09.252Z,61732.19
2023-05-14T10:18:48.584Z,61723.41
2023-05-14T10:21:21.168Z,61708.16
2023-05-14T10:23:51.400Z,61705.28
2023-05-14T10:26:21.783Z,61702.00
2023-05-14T10:28:53.112Z,61693.31
2023-05-14T10:31:24.429Z,61701.56
2023-05-14T10:33:54.674Z,61750.00
2023-05-14T10:36:23.639Z,61769.06
2023-05-14T10:38:57.057Z,61771.69
2023-05-14T10:41:25.694Z,61758.13
2023-05-14T10:43:58.905Z,61762.50
2023-05-14T10:46:27.539Z,61755.50
2023-05-14T10:48:56.074Z,61748.91
2023-05-14T10:51:24.622Z,61765.38
2023-05-14T10:53:54.188Z,61803.81
2023-05-14T10:56:22.987Z,61813.59
2023-05-14T10:58:51.675Z,61809.31
2023-05-14T11:01:25.393Z,61774.28
2023-05-14T11:03:55.899Z,61761.28
2023-05-14T11:06:24.558Z,61745.91
2023-05-14T11:08:54.271Z,61724.50
2023-05-14T11:11:22.799Z,61709.28
2023-05-14T11:13:51.770Z,61701.03
2023-05-14T11:16:24.274Z,61698.28
2023-05-14T11:19:03.431Z,61690.72
2023-05-14T11:21:32.662Z,61689.34
2023-05-14T11:24:01.499Z,61681.69
2023-05-14T11:26:30.024Z,61672.63
2023-05-14T11:28:58.752Z,61673.03
2023-05-14T11:31:29.258Z,61678.38
2023-05-14T11:33:58.463Z,61680.03
2023-05-14T11:36:26.916Z,61687.16
2023-05-14T11:38:55.335Z,61693.75
2023-05-14T11:41:23.867Z,61695.53
2023-05-14T11:43:52.426Z,61705.84
2023-05-14T11:46:22.457Z,61698.41
2023-05-14T11:48:52.377Z,61689.06
2023-05-14T11:51:20.819Z,61686.75
2023-05-14T11:53:49.281Z,61673.16
2023-05-14T11:56:17.838Z,61665.22
2023-05-14T11:58:49.581Z,61665.75
2023-05-14T12:01:18.199Z,61662.06
2023-05-14T12:03:47.393Z,61671.38
2023-05-14T12:06:17.449Z,61676.88
2023-05-14T12:08:48.612Z,61684.00
2023-05-14T12:11:22.145Z,61697.31
2023-05-14T12:13:51.244Z,61722.97
2023-05-14T12:16:22.096Z,61749.75
2023-05-14T12:18:50.924Z,61783.50
2023-05-14T12:21:20.955Z,61810.97
2023-05-14T12:23:49.379Z,61834.56
2023-05-14T12:26:17.962Z,61840.06
2023-05-14T12:28:49.071Z,61831.28
2023-05-14T12:31:17.755Z,61830.19
2023-05-14T12:33:46.225Z,61820.97
2023-05-14T12:38:49.807Z,61807.28
2023-05-14T12:41:18.504Z,61801.63
2023-05-14T12:43:49.775Z,61798.63
2023-05-14T12:46:18.473Z,61792.69
2023-05-14T12:48:47.343Z,61792.00
2023-05-14T12:51:16.012Z,61785.97
2023-05-14T12:53:44.520Z,61782.41
2023-05-14T12:56:14.649Z,61793.66
2023-05-14T12:58:43.033Z,61802.03
2023-05-14T13:01:11.827Z,61802.59
2023-05-14T13:03:41.165Z,61803.56
2023-05-14T13:06:09.724Z,61795.03
2023-05-14T13:08:38.260Z,61792.13
2023-05-14T13:11:06.787Z,61781.72
2023-05-14T13:13:36.698Z,61763.59
2023-05-14T13:16:05.797Z,61751.63
2023-05-14T13:18:34.266Z,61746.44
2023-05-14T13:21:06.300Z,61722.56
2023-05-14T13:23:34.646Z,61725.19
2023-05-14T13:26:03.024Z,61724.09
2023-05-14T13:28:31.442Z,61718.16
2023-05-14T13:31:09.827Z,61712.69
2023-05-14T13:33:39.574Z,61712.00
2023-05-14T13:36:09.131Z,61717.06
2023-05-14T13:38:37.632Z,61711.03
2023-05-14T13:41:06.523Z,61721.22
2023-05-14T13:43:36.257Z,61718.72
2023-05-14T13:46:06.040Z,61711.59
2023-05-14T13:48:37.263Z,61705.28
2023-05-14T13:51:05.707Z,61697.03
2023-05-14T13:53:34.063Z,61689.34
2023-05-14T13:56:02.520Z,61685.66
2023-05-14T13:58:31.373Z,61679.06
2023-05-14T14:00:59.853Z,61677.41
2023-05-14T14:03:28.298Z,61684.00
2023-05-14T14:05:58.096Z,61688.53
2023-05-14T14:08:26.492Z,61700.34
2023-05-14T14:10:55.718Z,61701.03
2023-05-14T14:13:24.440Z,61704.31
2023-05-14T14:15:53.043Z,61703.22
2023-05-14T14:18:21.544Z,61702.00
2023-05-14T14:20:50.037Z,61703.22
2023-05-14T14:23:19.855Z,61709.28
2023-05-14T14:25:48.224Z,61706.75
2023-05-14T14:28:16.599Z,61713.22
2023-05-14T14:30:45.076Z,61720.09
2023-05-14T14:33:13.570Z,61711.59
2023-05-14T14:35:42.660Z,61713.66
2023-05-14T14:38:11.151Z,61723.53
2023-05-14T14:40:40.951Z,61729.16
2023-05-14T14:43:09.313Z,61737.25
2023-05-14T14:45:37.740Z,61746.44
2023-05-14T14:48:26.953Z,61753.28
2023-05-14T14:50:55.994Z,61769.94
2023-05-14T14:53:25.499Z,61774.31
2023-05-14T14:55:55.593Z,61778.97
2023-05-14T14:58:24.816Z,61786.66
2023-05-14T15:00:55.321Z,61794.75
2023-05-14T15:03:25.376Z,61799.19
2023-05-14T15:05:54.188Z,61812.59
2023-05-14T15:08:26.374Z,61822.94
2023-05-14T15:10:56.731Z,61835.97
2023-05-14T15:13:25.773Z,61835.13
2023-05-14T15:15:54.350Z,61846.00
2023-05-14T15:18:23.089Z,61839.41
2023-05-14T15:20:52.198Z,61823.59
2023-05-14T15:23:21.226Z,61811.25
2023-05-14T15:25:50.054Z,61804.13
2023-05-14T15:28:19.874Z,61801.50
2023-05-14T15:30:49.103Z,61800.53
2023-05-14T15:33:19.213Z,61802.19
2023-05-14T15:35:47.790Z,61811.50
2023-05-14T15:38:16.247Z,61805.47
2023-05-14T15:40:44.647Z,61804.66
2023-05-14T15:43:13.165Z,61784.03
2023-05-14T15:45:45.427Z,61768.66
2023-05-14T15:48:13.813Z,61772.81
2023-05-14T15:50:42.764Z,61757.13
2023-05-14T15:53:11.120Z,61755.78
2023-05-14T15:55:39.575Z,61753.59
2023-05-14T15:58:07.929Z,61754.69
2023-05-14T16:00:36.461Z,61749.31
2023-05-14T16:03:06.734Z,61749.19
2023-05-14T16:05:35.372Z,61751.38
2023-05-14T16:08:03.884Z,61747.53
2023-05-14T16:10:32.203Z,61743.41
2023-05-14T16:13:00.562Z,61745.91
2023-05-14T16:15:29.091Z,61737.91
2023-05-14T16:17:57.604Z,61736.56
2023-05-14T16:20:27.365Z,61733.53
2023-05-14T16:22:55.700Z,61740.72
2023-05-14T16:25:24.049Z,61719.81
2023-05-14T16:27:52.393Z,61727.78
2023-05-14T16:30:20.873Z,61721.47
2023-05-14T16:32:49.603Z,61722.97
2023-05-14T16:35:19.109Z,61717.06
2023-05-14T16:37:48.849Z,61711.59
2023-05-14T16:40:19.604Z,61709.94
2023-05-14T16:42:49.261Z,61706.09
2023-05-14T16:45:18.066Z,61707.63
2023-05-14T16:47:46.463Z,61709.56
2023-05-14T16:50:14.832Z,61698.16
2023-05-14T16:52:43.198Z,61683.56
2023-05-14T16:55:13.066Z,61683.88
2023-05-14T16:57:41.460Z,61686.47
2023-05-14T17:00:11.185Z,61684.97
2023-05-14T17:02:40.084Z,61675.91
2023-05-14T17:05:09.657Z,61680.59
2023-05-14T17:07:38.527Z,61676.88
2023-05-14T17:10:08.117Z,61686.06
2023-05-14T17:12:37.883Z,61678.81
2023-05-14T17:15:08.073Z,61666.00
2023-05-14T17:17:36.503Z,61665.22
2023-05-14T17:20:06.601Z,61654.94
2023-05-14T17:25:03.442Z,61640.25
2023-05-14T17:27:33.289Z,61640.53
2023-05-14T17:30:03.497Z,61630.38
2023-05-14T17:32:32.050Z,61631.78
2023-05-14T17:35:00.463Z,61623.81
2023-05-14T17:37:28.931Z,61615.03
2023-05-14T17:39:57.311Z,61603.25
2023-05-14T17:42:25.758Z,61594.72
2023-05-14T17:44:54.511Z,61603.09
2023-05-14T17:47:24.280Z,61595.00
2023-05-14T17:49:52.788Z,61574.44
2023-05-14T17:52:21.368Z,61573.22
2023-05-14T17:54:49.752Z,61566.50
2023-05-14T17:57:18.263Z,61555.53
2023-05-14T17:59:46.622Z,61543.75
2023-05-14T18:02:15.123Z,61546.38
2023-05-14T18:04:45.271Z,61550.59
2023-05-14T18:07:13.772Z,61547.03
2023-05-14T18:09:42.096Z,61545.00
2023-05-14T18:12:10.571Z,61525.09
2023-05-14T18:14:38.950Z,61516.22
2023-05-14T18:17:07.370Z,61500.59
2023-05-14T18:19:36.566Z,61498.53
2023-05-14T18:22:06.523Z,61486.50
2023-05-14T18:24:35.172Z,61478.69
2023-05-14T18:27:03.737Z,61469.94
2023-05-14T18:29:32.108Z,61456.50
2023-05-14T18:32:00.466Z,61450.34
2023-05-14T18:34:28.823Z,61440.06
2023-05-14T18:36:57.609Z,61436.13
2023-05-14T18:39:27.456Z,61429.53
2023-05-14T18:41:56.658Z,61422.97
2023-05-14T18:44:25.034Z,61417.50
2023-05-14T18:46:53.751Z,61419.41
2023-05-14T18:49:22.084Z,61409.16
2023-05-14T18:51:50.504Z,61403.25
2023-05-14T18:54:18.876Z,61395.19
2023-05-14T18:56:48.614Z,61389.72
2023-05-14T18:59:16.932Z,61385.03
2023-05-14T19:01:45.763Z,61382.19
2023-05-14T19:04:14.582Z,61370.28
2023-05-14T19:06:42.970Z,61364.25
2023-05-14T19:09:11.425Z,61353.44
2023-05-14T19:11:39.811Z,61347.84
2023-05-14T19:14:09.677Z,61333.47
2023-05-14T19:16:38.093Z,61334.31
2023-05-14T19:19:06.493Z,61326.09
2023-05-14T19:21:35.073Z,61318.03
2023-05-14T19:24:03.464Z,61312.41
2023-05-14T19:26:31.853Z,61305.84
2023-05-14T19:29:00.189Z,61299.28
2023-05-14T19:31:29.987Z,61296.00
2023-05-14T19:33:58.650Z,61292.75
2023-05-14T19:36:26.998Z,61288.38
2023-05-14T19:38:55.373Z,61282.91
2023-05-14T19:41:23.804Z,61285.50
2023-05-14T19:43:52.120Z,61276.47
2023-05-14T19:46:20.604Z,61276.34
2023-05-14T19:48:50.308Z,61273.59
2023-05-14T19:51:18.662Z,61271.94
2023-05-14T19:53:46.941Z,61267.56
2023-05-14T19:56:15.584Z,61264.81
2023-05-14T19:58:44.182Z,61262.09
2023-05-14T20:01:12.672Z,61261.00
2023-05-14T20:03:41.290Z,61254.56
2023-05-14T20:06:11.354Z,61253.34
2023-05-14T20:08:39.968Z,61247.34
2023-05-14T20:11:08.317Z,61243.78
2023-05-14T20:13:36.746Z,61236.97
2023-05-14T20:16:05.922Z,61228.34
2023-05-14T20:18:34.329Z,61232.31
2023-05-14T20:21:02.682Z,61226.44
2023-05-14T20:23:32.566Z,61226.16
2023-05-14T20:26:01.782Z,61213.44
2023-05-14T20:28:31.249Z,61209.09
2023-05-14T20:31:00.281Z,61207.31
2023-05-14T20:33:29.131Z,61201.44
2023-05-14T20:35:57.640Z,61197.59
2023-05-14T20:38:29.210Z,61196.53
2023-05-14T20:40:58.922Z,61193.22
2023-05-14T20:43:27.660Z,61184.22
2023-05-14T20:45:58.871Z,61182.03
2023-05-14T20:48:27.318Z,61184.50
2023-05-14T20:50:55.722Z,61181.22
2023-05-14T20:53:25.327Z,61176.88
2023-05-14T20:55:53.674Z,61178.34
2023-05-14T20:58:23.323Z,61174.66
2023-05-14T21:00:51.658Z,61170.97
2023-05-14T21:03:20.247Z,61172.34
2023-05-14T21:05:48.650Z,61175.47
2023-05-14T21:08:17.204Z,61165.53
2023-05-14T21:10:45.526Z,61163.88
2023-05-14T21:13:13.910Z,61166.34
2023-05-14T21:15:43.624Z,61165.25
2023-05-14T21:18:12.238Z,61164.16
2023-05-14T21:20:41.448Z,61162.50
2023-05-14T21:23:09.810Z,61161.00
2023-05-14T21:25:38.245Z,61157.19
2023-05-14T21:28:06.538Z,61154.88
2023-05-14T21:30:34.875Z,61153.63
2023-05-14T21:33:04.790Z,61144.47
2023-05-14T21:35:33.289Z,61131.09
2023-05-14T21:38:01.883Z,61126.03
2023-05-14T21:40:30.181Z,61121.13
2023-05-14T21:42:58.495Z,61116.22
2023-05-14T21:45:27.085Z,61116.63
2023-05-14T21:47:55.956Z,61109.66
2023-05-14T21:50:26.239Z,61108.00
2023-05-14T21:52:54.564Z,61102.56
2023-05-14T21:55:23.215Z,61094.53
2023-05-14T21:57:52.155Z,61091.66
2023-05-14T22:00:23.482Z,61087.81
2023-05-14T22:02:53.474Z,61085.66
2023-05-14T22:05:22.507Z,61083.34
2023-05-14T22:07:52.431Z,61082.63
2023-05-14T22:10:21.063Z,61074.06
2023-05-14T22:12:49.389Z,61065.59
2023-05-14T22:15:17.721Z,61062.88
2023-05-14T22:17:46.856Z,61063.66
2023-05-14T22:20:15.295Z,61062.59
2023-05-14T22:22:43.689Z,61058.91
2023-05-14T22:25:13.365Z,61055.63
2023-05-14T22:27:41.664Z,61048.00
2023-05-14T22:30:10.796Z,61045.25
2023-05-14T22:32:39.412Z,61046.22
2023-05-14T22:35:08.177Z,61040.75
2023-05-14T22:37:36.484Z,61038.03
2023-05-14T22:40:06.187Z,61036.38
2023-05-14T22:42:35.967Z,61034.91
2023-05-14T22:45:04.428Z,61033.94
2023-05-14T22:47:32.826Z,61036.94
2023-05-14T22:50:01.150Z,61033.25
2023-05-14T22:52:29.479Z,61028.34
2023-05-14T22:54:57.797Z,61025.06
2023-05-14T22:57:26.104Z,61018.69
2023-05-14T22:59:55.763Z,61021.91
2023-05-14T23:28:58.415Z,60975.69
2023-05-14T23:31:26.850Z,60968.91
2023-05-14T23:33:55.344Z,60974.59
2023-05-14T23:36:24.060Z,60968.91
2023-05-14T23:38:53.031Z,60972.72
2023-05-14T23:41:21.772Z,60966.44
2023-05-14T23:43:50.217Z,60972.72
2023-05-14T23:46:20.117Z,60975.81
2023-05-14T23:48:48.680Z,60977.88
2023-05-14T23:51:17.117Z,60968.91
2023-05-14T23:53:45.821Z,60971.34
2023-05-14T23:56:14.312Z,60963.97
2023-05-14T23:58:43.062Z,60957.97
